createdAt,value
2023-03-22T00:00:31.608Z,7.68
2023-03-22T00:03:31.658Z,7.63
2023-03-22T00:06:31.647Z,7.63
2023-03-22T00:09:31.636Z,7.64
2023-03-22T00:12:31.641Z,7.59
2023-03-22T00:15:31.658Z,7.6
2023-03-22T00:18:31.654Z,7.6
2023-03-22T00:21:31.662Z,7.6
2023-03-22T00:24:31.700Z,7.61
2023-03-22T00:27:31.678Z,7.55
2023-03-22T00:30:31.687Z,7.55
2023-03-22T00:33:31.710Z,7.51
2023-03-22T00:36:31.702Z,7.57
2023-03-22T00:39:31.719Z,7.51
2023-03-22T00:42:31.742Z,7.51
2023-03-22T00:45:31.737Z,7.52
2023-03-22T00:48:31.751Z,7.48
2023-03-22T00:51:31.746Z,7.48
2023-03-22T00:54:31.781Z,7.48
2023-03-22T00:57:31.777Z,7.48
2023-03-22T01:00:31.828Z,7.47
2023-03-22T01:03:31.814Z,7.44
2023-03-22T01:06:31.805Z,7.45
2023-03-22T01:09:31.808Z,7.45
2023-03-22T01:12:31.816Z,7.46
2023-03-22T01:15:31.832Z,7.47
2023-03-22T01:18:31.874Z,7.47
2023-03-22T01:21:31.883Z,7.51
2023-03-22T01:24:31.858Z,7.53
2023-03-22T01:27:31.869Z,7.56
2023-03-22T01:30:31.896Z,7.55
2023-03-22T01:33:31.892Z,7.58
2023-03-22T01:36:31.919Z,7.56
2023-03-22T01:39:31.911Z,7.55
2023-03-22T01:42:31.922Z,7.59
2023-03-22T01:45:31.924Z,7.53
2023-03-22T01:48:31.941Z,7.58
2023-03-22T01:51:31.951Z,7.56
2023-03-22T01:54:31.987Z,7.55
2023-03-22T01:57:31.969Z,7.55
2023-03-22T02:00:31.976Z,7.51
2023-03-22T02:03:31.987Z,7.51
2023-03-22T02:06:31.994Z,7.52
2023-03-22T02:09:32.002Z,7.51
2023-03-22T02:12:32.041Z,7.5
2023-03-22T02:15:32.116Z,7.5
2023-03-22T02:18:32.038Z,7.5
2023-03-22T02:21:32.022Z,7.49
2023-03-22T02:24:32.034Z,7.46
2023-03-22T02:27:32.039Z,7.47
2023-03-22T02:30:32.080Z,7.48
2023-03-22T02:33:32.055Z,7.49
2023-03-22T02:36:32.056Z,7.5
2023-03-22T02:39:32.058Z,7.5
2023-03-22T02:42:32.058Z,7.54
2023-03-22T02:45:32.066Z,7.53
2023-03-22T02:48:32.083Z,7.57
2023-03-22T02:51:32.064Z,7.56
2023-03-22T02:54:32.075Z,7.56
2023-03-22T02:57:32.085Z,7.55
2023-03-22T03:00:32.133Z,7.58
2023-03-22T03:03:32.110Z,7.57
2023-03-22T03:06:32.119Z,7.57
2023-03-22T03:09:32.097Z,7.57
2023-03-22T03:12:32.101Z,7.61
2023-03-22T03:15:32.100Z,7.6
2023-03-22T03:18:32.105Z,7.59
2023-03-22T03:21:32.119Z,7.58
2023-03-22T03:24:32.150Z,7.62
2023-03-22T03:27:32.128Z,7.61
2023-03-22T03:30:32.129Z,7.66
2023-03-22T03:33:32.135Z,7.65
2023-03-22T03:36:32.134Z,7.68
2023-03-22T03:39:32.141Z,7.62
2023-03-22T03:42:32.173Z,7.62
2023-03-22T03:45:32.209Z,7.66
2023-03-22T03:48:32.146Z,7.66
2023-03-22T03:51:32.161Z,7.65
2023-03-22T03:54:32.160Z,7.65
2023-03-22T03:57:32.165Z,7.66
2023-03-22T04:00:32.194Z,7.66
2023-03-22T04:03:32.189Z,7.66
2023-03-22T04:06:32.183Z,7.66
2023-03-22T04:09:32.184Z,7.62
2023-03-22T04:12:32.189Z,7.67
2023-03-22T04:15:32.194Z,7.62
2023-03-22T04:18:32.225Z,7.63
2023-03-22T04:21:32.205Z,7.63
2023-03-22T04:24:32.210Z,7.68
2023-03-22T04:27:32.213Z,7.67
2023-03-22T04:30:32.216Z,7.67
2023-03-22T04:33:32.224Z,7.66
2023-03-22T04:36:32.252Z,7.66
2023-03-22T04:39:32.224Z,7.66
2023-03-22T04:42:32.224Z,7.66
2023-03-22T04:45:32.240Z,7.66
2023-03-22T04:48:32.235Z,7.65
2023-03-22T04:51:32.254Z,7.64
2023-03-22T04:54:32.273Z,7.63
2023-03-22T04:57:32.256Z,7.67
2023-03-22T05:00:32.247Z,7.66
2023-03-22T05:03:32.249Z,7.66
2023-03-22T05:06:32.262Z,7.65
2023-03-22T05:09:32.260Z,7.65
2023-03-22T05:12:32.296Z,7.66
2023-03-22T05:15:32.277Z,7.67
2023-03-22T05:18:32.279Z,7.66
2023-03-22T05:21:32.284Z,7.66
2023-03-22T05:24:32.286Z,7.66
2023-03-22T05:27:32.293Z,7.68
2023-03-22T05:30:32.320Z,7.69
2023-03-22T05:33:32.308Z,7.64
2023-03-22T05:36:32.308Z,7.69
2023-03-22T05:39:32.302Z,7.69
2023-03-22T05:42:32.341Z,7.67
2023-03-22T05:45:32.319Z,7.71
2023-03-22T05:48:32.400Z,7.74
2023-03-22T05:51:32.326Z,7.72
2023-03-22T05:54:32.339Z,7.75
2023-03-22T05:57:32.343Z,7.73
2023-03-22T06:00:32.370Z,7.78
2023-03-22T06:03:32.362Z,7.76
2023-03-22T06:06:32.374Z,7.79
2023-03-22T06:09:32.349Z,7.78
2023-03-22T06:12:32.365Z,7.77
2023-03-22T06:15:32.351Z,7.81
2023-03-22T06:18:32.354Z,7.8
2023-03-22T06:21:32.361Z,7.79
2023-03-22T06:24:32.387Z,7.83
2023-03-22T06:27:32.363Z,7.83
2023-03-22T06:30:32.425Z,7.86
2023-03-22T06:33:32.366Z,7.84
2023-03-22T06:36:32.370Z,7.87
2023-03-22T06:39:32.356Z,7.86
2023-03-22T06:42:32.381Z,7.86
2023-03-22T06:45:32.362Z,7.9
2023-03-22T06:48:32.361Z,7.93
2023-03-22T06:51:32.362Z,7.94
2023-03-22T06:54:32.363Z,7.97
2023-03-22T06:57:32.369Z,8.05
2023-03-22T07:00:32.452Z,8.09
2023-03-22T07:03:32.370Z,8.17
2023-03-22T07:06:32.370Z,8.16
2023-03-22T07:09:32.370Z,8.06
2023-03-22T07:12:32.379Z,8.03
2023-03-22T07:15:32.445Z,8.1
2023-03-22T07:18:32.410Z,8.06
2023-03-22T07:21:32.375Z,8.06
2023-03-22T07:24:32.380Z,8.06
2023-03-22T07:27:32.384Z,8.11
2023-03-22T07:30:32.383Z,8.12
2023-03-22T07:33:32.379Z,8.19
2023-03-22T07:36:32.803Z,8.2
2023-03-22T07:39:32.385Z,8.19
2023-03-22T07:42:32.390Z,8.2
2023-03-22T07:45:32.486Z,8.28
2023-03-22T07:48:32.454Z,8.31
2023-03-22T07:51:32.666Z,8.21
2023-03-22T07:54:34.310Z,8.26
2023-03-22T07:57:32.402Z,8.25
2023-03-22T08:00:32.409Z,8.26
2023-03-22T08:03:32.459Z,8.26
2023-03-22T08:06:32.419Z,8.37
2023-03-22T08:09:32.415Z,8.37
2023-03-22T08:12:32.491Z,8.4
2023-03-22T08:15:32.425Z,8.49
2023-03-22T08:18:32.455Z,8.39
2023-03-22T08:21:32.429Z,8.56
2023-03-22T08:24:32.424Z,8.45
2023-03-22T08:27:32.423Z,8.57
2023-03-22T08:30:32.457Z,8.57
2023-03-22T08:33:32.428Z,8.55
2023-03-22T08:36:32.441Z,8.48
2023-03-22T08:39:32.425Z,8.49
2023-03-22T08:42:32.426Z,8.5
2023-03-22T08:45:32.430Z,8.72
2023-03-22T08:48:32.461Z,8.77
2023-03-22T08:51:32.429Z,8.95
2023-03-22T08:54:32.426Z,9.03
2023-03-22T08:57:32.432Z,8.96
2023-03-22T09:00:45.913Z,8.81
2023-03-22T09:03:32.426Z,8.78
2023-03-22T09:06:32.470Z,8.8
2023-03-22T09:09:32.449Z,8.68
2023-03-22T09:12:32.432Z,8.66
2023-03-22T09:15:32.437Z,8.66
2023-03-22T09:18:32.436Z,8.64
2023-03-22T09:21:32.437Z,8.68
2023-03-22T09:24:32.461Z,8.68
2023-03-22T09:27:32.440Z,8.62
2023-03-22T09:30:32.437Z,8.57
2023-03-22T09:33:32.443Z,8.44
2023-03-22T09:36:32.488Z,8.41
2023-03-22T09:39:32.447Z,8.46
2023-03-22T09:42:32.470Z,8.47
2023-03-22T09:45:32.443Z,8.5
2023-03-22T09:48:32.517Z,8.41
2023-03-22T09:51:32.451Z,8.41
2023-03-22T09:54:32.456Z,8.47
2023-03-22T09:57:32.450Z,8.33
2023-03-22T10:00:32.620Z,8.46
2023-03-22T10:03:32.453Z,8.32
2023-03-22T10:06:32.453Z,8.44
2023-03-22T10:09:32.460Z,8.35
2023-03-22T10:12:32.462Z,8.31
2023-03-22T10:15:32.457Z,8.35
2023-03-22T10:18:32.499Z,8.35
2023-03-22T10:21:32.463Z,8.58
2023-03-22T10:24:32.466Z,8.56
2023-03-22T10:27:32.473Z,8.47
2023-03-22T10:30:32.482Z,8.45
2023-03-22T10:33:32.585Z,8.37
2023-03-22T10:36:32.522Z,8.39
2023-03-22T10:39:32.507Z,8.29
2023-03-22T10:42:32.479Z,8.25
2023-03-22T10:45:32.478Z,8.2
2023-03-22T10:48:32.538Z,8.25
2023-03-22T10:51:32.478Z,8.28
2023-03-22T10:54:32.501Z,8.28
2023-03-22T10:57:32.489Z,8.2
2023-03-22T11:00:32.536Z,8.34
2023-03-22T11:03:32.489Z,8.56
2023-03-22T11:06:32.484Z,8.69
2023-03-22T11:09:32.484Z,8.35
2023-03-22T11:12:32.529Z,8.33
2023-03-22T11:15:32.492Z,8.54
2023-03-22T11:18:32.514Z,8.24
2023-03-22T11:21:32.507Z,8.25
2023-03-22T11:24:32.501Z,8.15
2023-03-22T11:27:32.590Z,8.08
2023-03-22T11:30:32.535Z,8
2023-03-22T11:33:32.507Z,8.16
2023-03-22T11:36:32.512Z,8.03
2023-03-22T11:39:32.510Z,8.16
2023-03-22T11:42:32.518Z,8.31
2023-03-22T11:45:32.517Z,8.03
2023-03-22T11:48:32.654Z,7.92
2023-03-22T11:51:32.517Z,8.1
2023-03-22T11:54:32.700Z,8.13
2023-03-22T11:57:32.524Z,7.84
2023-03-22T12:00:32.523Z,8.01
2023-03-22T12:03:32.730Z,8.16
2023-03-22T12:06:32.722Z,8.09
2023-03-22T12:09:32.531Z,8.19
2023-03-22T12:12:32.533Z,8.13
2023-03-22T12:15:32.541Z,8.13
2023-03-22T12:18:32.531Z,8.18
2023-03-22T12:21:32.543Z,8.2
2023-03-22T12:24:32.574Z,8.13
2023-03-22T12:27:32.541Z,7.99
2023-03-22T12:30:32.551Z,7.98
2023-03-22T12:33:32.554Z,8.04
2023-03-22T12:36:32.552Z,8.02
2023-03-22T12:39:32.549Z,7.93
2023-03-22T12:42:32.735Z,8.07
2023-03-22T12:45:32.669Z,8.08
2023-03-22T12:48:32.593Z,8.06
2023-03-22T12:51:32.553Z,8.01
2023-03-22T12:54:32.558Z,8.13
2023-03-22T12:57:32.550Z,8.16
2023-03-22T13:00:32.606Z,8.14
2023-03-22T13:03:32.652Z,8.1
2023-03-22T13:06:32.593Z,8.19
2023-03-22T13:09:32.556Z,8.02
2023-03-22T13:12:32.561Z,8.05
2023-03-22T13:15:41.149Z,8.05
2023-03-22T13:18:33.396Z,8.14
2023-03-22T13:21:32.574Z,8.08
2023-03-22T13:24:32.644Z,8.17
2023-03-22T13:27:32.573Z,8.17
2023-03-22T13:30:33.246Z,8.11
2023-03-22T13:33:32.579Z,8.03
2023-03-22T13:36:32.597Z,8.01
2023-03-22T13:39:32.587Z,8.06
2023-03-22T13:42:32.579Z,8.14
2023-03-22T13:45:32.582Z,8.05
2023-03-22T13:48:34.252Z,8.06
2023-03-22T13:51:32.585Z,8.06
2023-03-22T13:54:32.611Z,8.01
2023-03-22T13:57:32.589Z,7.89
2023-03-22T14:00:32.596Z,7.77
2023-03-22T14:03:32.728Z,7.85
2023-03-22T14:06:32.603Z,7.9
2023-03-22T14:09:32.603Z,7.9
2023-03-22T14:12:32.628Z,7.94
2023-03-22T14:15:32.705Z,7.9
2023-03-22T14:18:32.611Z,7.88
2023-03-22T14:21:32.615Z,7.84
